sensor_id;sensor_type;location;lat;lon;timestamp;P1;durP1;ratioP1;P2;durP2;ratioP2
11228;SDS011;5671;47.936;8.716;2023-05-20T00:00:35;7.07;;;3.00;;
11228;SDS011;5671;47.936;8.716;2023-05-20T00:03:01;5.67;;;2.63;;
11228;SDS011;5671;47.936;8.716;2023-05-20T00:05:29;7.37;;;3.20;;
11228;SDS011;5671;47.936;8.716;2023-05-20T00:07:56;5.13;;;3.10;;
11228;SDS011;5671;47.936;8.716;2023-05-20T00:10:23;9.03;;;3.40;;
11228;SDS011;5671;47.936;8.716;2023-05-20T00:12:51;6.97;;;2.80;;
11228;SDS011;5671;47.936;8.716;2023-05-20T00:15:18;5.03;;;2.77;;
11228;SDS011;5671;47.936;8.716;2023-05-20T00:17:45;4.00;;;2.50;;
11228;SDS011;5671;47.936;8.716;2023-05-20T00:20:12;4.13;;;2.83;;
11228;SDS011;5671;47.936;8.716;2023-05-20T00:22:39;5.47;;;2.70;;
11228;SDS011;5671;47.936;8.716;2023-05-20T00:25:06;8.50;;;2.80;;
11228;SDS011;5671;47.936;8.716;2023-05-20T00:27:33;4.20;;;2.90;;
11228;SDS011;5671;47.936;8.716;2023-05-20T00:30:02;4.10;;;2.63;;
11228;SDS011;5671;47.936;8.716;2023-05-20T00:32:29;3.13;;;2.73;;
11228;SDS011;5671;47.936;8.716;2023-05-20T00:34:56;5.50;;;2.77;;
11228;SDS011;5671;47.936;8.716;2023-05-20T00:37:23;5.03;;;2.27;;
11228;SDS011;5671;47.936;8.716;2023-05-20T00:39:50;4.80;;;2.50;;
11228;SDS011;5671;47.936;8.716;2023-05-20T00:42:19;3.50;;;2.33;;
11228;SDS011;5671;47.936;8.716;2023-05-20T00:44:46;6.43;;;2.90;;
11228;SDS011;5671;47.936;8.716;2023-05-20T00:47:15;7.47;;;2.57;;
11228;SDS011;5671;47.936;8.716;2023-05-20T00:49:43;2.60;;;2.40;;
11228;SDS011;5671;47.936;8.716;2023-05-20T00:52:11;3.87;;;2.43;;
11228;SDS011;5671;47.936;8.716;2023-05-20T00:54:39;5.80;;;2.90;;
11228;SDS011;5671;47.936;8.716;2023-05-20T00:57:06;3.83;;;2.60;;
11228;SDS011;5671;47.936;8.716;2023-05-20T00:59:33;4.73;;;2.50;;
11228;SDS011;5671;47.936;8.716;2023-05-20T01:02:01;2.60;;;2.40;;
11228;SDS011;5671;47.936;8.716;2023-05-20T01:04:30;3.80;;;2.50;;
11228;SDS011;5671;47.936;8.716;2023-05-20T01:06:58;4.03;;;2.33;;
11228;SDS011;5671;47.936;8.716;2023-05-20T01:09:27;3.77;;;2.30;;
11228;SDS011;5671;47.936;8.716;2023-05-20T01:11:55;4.30;;;2.90;;
11228;SDS011;5671;47.936;8.716;2023-05-20T01:14:28;5.63;;;2.63;;
11228;SDS011;5671;47.936;8.716;2023-05-20T01:16:57;5.83;;;2.50;;
11228;SDS011;5671;47.936;8.716;2023-05-20T01:19:37;2.47;;;2.17;;
11228;SDS011;5671;47.936;8.716;2023-05-20T01:22:08;3.67;;;2.00;;
11228;SDS011;5671;47.936;8.716;2023-05-20T01:24:37;4.33;;;2.33;;
11228;SDS011;5671;47.936;8.716;2023-05-20T01:27:05;3.73;;;2.00;;
11228;SDS011;5671;47.936;8.716;2023-05-20T01:29:34;4.40;;;2.33;;
11228;SDS011;5671;47.936;8.716;2023-05-20T01:32:02;2.87;;;2.50;;
11228;SDS011;5671;47.936;8.716;2023-05-20T01:34:32;2.60;;;2.20;;
11228;SDS011;5671;47.936;8.716;2023-05-20T01:37:00;4.40;;;2.50;;
11228;SDS011;5671;47.936;8.716;2023-05-20T01:39:29;4.63;;;2.40;;
11228;SDS011;5671;47.936;8.716;2023-05-20T01:42:00;3.47;;;2.17;;
11228;SDS011;5671;47.936;8.716;2023-05-20T01:44:28;3.17;;;2.20;;
11228;SDS011;5671;47.936;8.716;2023-05-20T01:46:56;5.27;;;2.10;;
11228;SDS011;5671;47.936;8.716;2023-05-20T01:49:22;5.73;;;2.30;;
11228;SDS011;5671;47.936;8.716;2023-05-20T01:51:49;3.43;;;1.93;;
11228;SDS011;5671;47.936;8.716;2023-05-20T01:54:16;5.00;;;2.43;;
11228;SDS011;5671;47.936;8.716;2023-05-20T01:56:44;5.73;;;2.43;;
11228;SDS011;5671;47.936;8.716;2023-05-20T01:59:12;3.30;;;2.27;;
11228;SDS011;5671;47.936;8.716;2023-05-20T02:01:39;2.97;;;2.40;;
11228;SDS011;5671;47.936;8.716;2023-05-20T02:04:06;5.00;;;2.20;;
11228;SDS011;5671;47.936;8.716;2023-05-20T02:06:33;5.93;;;2.23;;
11228;SDS011;5671;47.936;8.716;2023-05-20T02:09:00;4.63;;;2.63;;
11228;SDS011;5671;47.936;8.716;2023-05-20T02:11:27;5.10;;;2.70;;
11228;SDS011;5671;47.936;8.716;2023-05-20T02:13:54;4.47;;;3.10;;
11228;SDS011;5671;47.936;8.716;2023-05-20T02:16:22;5.97;;;2.83;;
11228;SDS011;5671;47.936;8.716;2023-05-20T02:18:49;3.53;;;2.73;;
11228;SDS011;5671;47.936;8.716;2023-05-20T02:21:17;6.83;;;3.63;;
11228;SDS011;5671;47.936;8.716;2023-05-20T02:23:44;5.43;;;2.90;;
11228;SDS011;5671;47.936;8.716;2023-05-20T02:26:11;4.50;;;2.83;;
11228;SDS011;5671;47.936;8.716;2023-05-20T02:28:38;6.90;;;2.60;;
11228;SDS011;5671;47.936;8.716;2023-05-20T02:31:08;7.67;;;3.07;;
11228;SDS011;5671;47.936;8.716;2023-05-20T02:33:37;7.10;;;3.13;;
11228;SDS011;5671;47.936;8.716;2023-05-20T02:36:04;4.43;;;2.60;;
11228;SDS011;5671;47.936;8.716;2023-05-20T02:38:31;4.33;;;2.77;;
11228;SDS011;5671;47.936;8.716;2023-05-20T02:40:57;6.40;;;2.53;;
11228;SDS011;5671;47.936;8.716;2023-05-20T02:43:24;6.03;;;3.40;;
11228;SDS011;5671;47.936;8.716;2023-05-20T02:45:51;7.77;;;3.63;;
11228;SDS011;5671;47.936;8.716;2023-05-20T02:48:18;3.73;;;2.87;;
11228;SDS011;5671;47.936;8.716;2023-05-20T02:50:46;7.60;;;3.40;;
11228;SDS011;5671;47.936;8.716;2023-05-20T02:53:13;8.30;;;3.40;;
11228;SDS011;5671;47.936;8.716;2023-05-20T02:55:40;4.17;;;2.70;;
11228;SDS011;5671;47.936;8.716;2023-05-20T02:58:09;8.43;;;3.00;;
11228;SDS011;5671;47.936;8.716;2023-05-20T03:00:37;3.63;;;2.60;;
11228;SDS011;5671;47.936;8.716;2023-05-20T03:03:04;4.67;;;2.60;;
11228;SDS011;5671;47.936;8.716;2023-05-20T03:05:31;4.67;;;2.90;;
11228;SDS011;5671;47.936;8.716;2023-05-20T03:08:02;7.37;;;3.10;;
11228;SDS011;5671;47.936;8.716;2023-05-20T03:10:33;6.53;;;3.13;;
11228;SDS011;5671;47.936;8.716;2023-05-20T03:13:00;4.90;;;3.03;;
11228;SDS011;5671;47.936;8.716;2023-05-20T03:15:27;6.13;;;3.17;;
11228;SDS011;5671;47.936;8.716;2023-05-20T03:17:54;5.73;;;2.97;;
11228;SDS011;5671;47.936;8.716;2023-05-20T03:20:20;4.03;;;2.70;;
11228;SDS011;5671;47.936;8.716;2023-05-20T03:22:50;3.03;;;2.67;;
11228;SDS011;5671;47.936;8.716;2023-05-20T03:25:18;4.60;;;2.80;;
11228;SDS011;5671;47.936;8.716;2023-05-20T03:27:45;4.07;;;2.67;;
11228;SDS011;5671;47.936;8.716;2023-05-20T03:30:12;4.43;;;2.80;;
11228;SDS011;5671;47.936;8.716;2023-05-20T03:32:39;2.97;;;2.60;;
11228;SDS011;5671;47.936;8.716;2023-05-20T03:35:06;4.20;;;2.60;;
11228;SDS011;5671;47.936;8.716;2023-05-20T03:37:34;2.97;;;2.50;;
11228;SDS011;5671;47.936;8.716;2023-05-20T03:40:01;4.20;;;3.10;;
11228;SDS011;5671;47.936;8.716;2023-05-20T03:42:31;3.00;;;2.40;;
11228;SDS011;5671;47.936;8.716;2023-05-20T03:44:58;3.93;;;2.43;;
11228;SDS011;5671;47.936;8.716;2023-05-20T03:47:25;3.07;;;2.47;;
11228;SDS011;5671;47.936;8.716;2023-05-20T03:49:52;2.47;;;2.27;;
11228;SDS011;5671;47.936;8.716;2023-05-20T03:52:20;3.33;;;2.27;;
11228;SDS011;5671;47.936;8.716;2023-05-20T03:54:46;2.60;;;2.40;;
11228;SDS011;5671;47.936;8.716;2023-05-20T03:57:13;6.77;;;2.80;;
11228;SDS011;5671;47.936;8.716;2023-05-20T03:59:42;4.60;;;2.30;;
11228;SDS011;5671;47.936;8.716;2023-05-20T04:02:08;2.80;;;2.53;;
11228;SDS011;5671;47.936;8.716;2023-05-20T04:04:35;6.97;;;3.23;;
11228;SDS011;5671;47.936;8.716;2023-05-20T04:07:02;3.30;;;2.63;;
11228;SDS011;5671;47.936;8.716;2023-05-20T04:09:31;3.37;;;2.50;;
11228;SDS011;5671;47.936;8.716;2023-05-20T04:11:58;5.97;;;2.67;;
11228;SDS011;5671;47.936;8.716;2023-05-20T04:14:25;3.80;;;3.40;;
11228;SDS011;5671;47.936;8.716;2023-05-20T04:16:54;4.23;;;2.93;;
11228;SDS011;5671;47.936;8.716;2023-05-20T04:19:21;3.87;;;3.30;;
11228;SDS011;5671;47.936;8.716;2023-05-20T04:21:52;3.33;;;3.03;;
11228;SDS011;5671;47.936;8.716;2023-05-20T04:24:19;4.17;;;3.53;;
11228;SDS011;5671;47.936;8.716;2023-05-20T04:26:49;4.20;;;3.10;;
11228;SDS011;5671;47.936;8.716;2023-05-20T04:29:16;3.23;;;2.93;;
11228;SDS011;5671;47.936;8.716;2023-05-20T04:31:44;3.87;;;3.20;;
11228;SDS011;5671;47.936;8.716;2023-05-20T04:34:12;4.93;;;3.20;;
11228;SDS011;5671;47.936;8.716;2023-05-20T04:36:43;5.50;;;3.00;;
11228;SDS011;5671;47.936;8.716;2023-05-20T04:39:10;4.53;;;2.97;;
11228;SDS011;5671;47.936;8.716;2023-05-20T04:41:37;3.50;;;2.93;;
11228;SDS011;5671;47.936;8.716;2023-05-20T04:44:04;3.30;;;2.83;;
11228;SDS011;5671;47.936;8.716;2023-05-20T04:46:31;3.03;;;2.77;;
11228;SDS011;5671;47.936;8.716;2023-05-20T04:48:58;5.00;;;3.17;;
11228;SDS011;5671;47.936;8.716;2023-05-20T04:51:27;4.33;;;2.93;;
11228;SDS011;5671;47.936;8.716;2023-05-20T04:53:54;4.30;;;3.10;;
11228;SDS011;5671;47.936;8.716;2023-05-20T04:56:22;4.67;;;3.70;;
11228;SDS011;5671;47.936;8.716;2023-05-20T04:58:50;3.20;;;2.90;;
11228;SDS011;5671;47.936;8.716;2023-05-20T05:01:17;3.60;;;2.80;;
11228;SDS011;5671;47.936;8.716;2023-05-20T05:03:44;3.13;;;2.83;;
11228;SDS011;5671;47.936;8.716;2023-05-20T05:06:10;3.33;;;2.83;;
11228;SDS011;5671;47.936;8.716;2023-05-20T05:08:39;4.20;;;2.73;;
11228;SDS011;5671;47.936;8.716;2023-05-20T05:11:06;3.43;;;2.77;;
11228;SDS011;5671;47.936;8.716;2023-05-20T05:13:32;4.23;;;3.20;;
11228;SDS011;5671;47.936;8.716;2023-05-20T05:15:59;4.73;;;3.20;;
11228;SDS011;5671;47.936;8.716;2023-05-20T05:18:27;4.27;;;3.47;;
11228;SDS011;5671;47.936;8.716;2023-05-20T05:20:57;3.90;;;3.50;;
11228;SDS011;5671;47.936;8.716;2023-05-20T05:23:25;6.47;;;3.77;;
11228;SDS011;5671;47.936;8.716;2023-05-20T05:25:53;8.33;;;3.73;;
11228;SDS011;5671;47.936;8.716;2023-05-20T05:28:20;5.10;;;3.90;;
11228;SDS011;5671;47.936;8.716;2023-05-20T05:30:47;4.37;;;3.93;;
11228;SDS011;5671;47.936;8.716;2023-05-20T05:33:14;6.40;;;4.53;;
11228;SDS011;5671;47.936;8.716;2023-05-20T05:35:41;5.60;;;4.00;;
11228;SDS011;5671;47.936;8.716;2023-05-20T05:38:08;5.27;;;4.43;;
11228;SDS011;5671;47.936;8.716;2023-05-20T05:40:35;5.67;;;4.50;;
11228;SDS011;5671;47.936;8.716;2023-05-20T05:43:03;5.27;;;4.47;;
11228;SDS011;5671;47.936;8.716;2023-05-20T05:45:30;6.63;;;4.47;;
11228;SDS011;5671;47.936;8.716;2023-05-20T05:47:57;5.97;;;4.20;;
11228;SDS011;5671;47.936;8.716;2023-05-20T05:50:24;6.60;;;5.00;;
11228;SDS011;5671;47.936;8.716;2023-05-20T05:52:51;5.80;;;4.57;;
11228;SDS011;5671;47.936;8.716;2023-05-20T05:55:18;5.60;;;4.93;;
11228;SDS011;5671;47.936;8.716;2023-05-20T05:57:44;6.00;;;4.77;;
11228;SDS011;5671;47.936;8.716;2023-05-20T06:00:13;7.77;;;4.70;;
11228;SDS011;5671;47.936;8.716;2023-05-20T06:02:40;6.00;;;4.83;;
11228;SDS011;5671;47.936;8.716;2023-05-20T06:05:07;5.60;;;4.90;;
11228;SDS011;5671;47.936;8.716;2023-05-20T06:07:35;5.13;;;4.63;;
11228;SDS011;5671;47.936;8.716;2023-05-20T06:10:02;6.00;;;5.40;;
11228;SDS011;5671;47.936;8.716;2023-05-20T06:12:29;6.40;;;5.20;;
11228;SDS011;5671;47.936;8.716;2023-05-20T06:14:56;7.13;;;5.37;;
11228;SDS011;5671;47.936;8.716;2023-05-20T06:17:24;5.27;;;4.77;;
11228;SDS011;5671;47.936;8.716;2023-05-20T06:19:54;7.50;;;5.50;;
11228;SDS011;5671;47.936;8.716;2023-05-20T06:22:21;6.27;;;4.93;;
11228;SDS011;5671;47.936;8.716;2023-05-20T06:24:47;5.13;;;4.70;;
11228;SDS011;5671;47.936;8.716;2023-05-20T06:27:14;6.53;;;5.27;;
11228;SDS011;5671;47.936;8.716;2023-05-20T06:29:41;8.00;;;5.50;;
11228;SDS011;5671;47.936;8.716;2023-05-20T06:32:08;6.27;;;5.57;;
11228;SDS011;5671;47.936;8.716;2023-05-20T06:34:36;5.70;;;5.10;;
11228;SDS011;5671;47.936;8.716;2023-05-20T06:37:03;7.53;;;5.30;;
11228;SDS011;5671;47.936;8.716;2023-05-20T06:39:30;6.97;;;5.30;;
11228;SDS011;5671;47.936;8.716;2023-05-20T06:41:57;6.53;;;5.53;;
11228;SDS011;5671;47.936;8.716;2023-05-20T06:44:24;5.73;;;5.07;;
11228;SDS011;5671;47.936;8.716;2023-05-20T06:46:50;6.20;;;5.60;;
11228;SDS011;5671;47.936;8.716;2023-05-20T06:49:17;6.13;;;5.43;;
11228;SDS011;5671;47.936;8.716;2023-05-20T06:51:46;5.67;;;5.07;;
11228;SDS011;5671;47.936;8.716;2023-05-20T06:54:13;7.13;;;5.23;;
11228;SDS011;5671;47.936;8.716;2023-05-20T06:56:40;7.83;;;5.50;;
11228;SDS011;5671;47.936;8.716;2023-05-20T06:59:08;6.00;;;5.10;;
11228;SDS011;5671;47.936;8.716;2023-05-20T07:01:35;7.40;;;5.77;;
11228;SDS011;5671;47.936;8.716;2023-05-20T07:04:02;6.83;;;5.37;;
11228;SDS011;5671;47.936;8.716;2023-05-20T07:06:29;6.30;;;5.10;;
11228;SDS011;5671;47.936;8.716;2023-05-20T07:08:57;8.77;;;5.23;;
11228;SDS011;5671;47.936;8.716;2023-05-20T07:11:25;6.37;;;5.37;;
11228;SDS011;5671;47.936;8.716;2023-05-20T07:13:51;6.40;;;5.80;;
11228;SDS011;5671;47.936;8.716;2023-05-20T07:16:18;7.67;;;5.83;;
11228;SDS011;5671;47.936;8.716;2023-05-20T07:18:45;6.53;;;5.87;;
11228;SDS011;5671;47.936;8.716;2023-05-20T07:21:12;9.60;;;5.47;;
11228;SDS011;5671;47.936;8.716;2023-05-20T07:23:39;9.23;;;5.77;;
11228;SDS011;5671;47.936;8.716;2023-05-20T07:26:07;12.37;;;6.03;;
11228;SDS011;5671;47.936;8.716;2023-05-20T07:28:34;8.47;;;6.20;;
11228;SDS011;5671;47.936;8.716;2023-05-20T07:31:01;11.60;;;6.47;;
11228;SDS011;5671;47.936;8.716;2023-05-20T07:33:28;8.30;;;6.40;;
11228;SDS011;5671;47.936;8.716;2023-05-20T07:35:55;11.73;;;7.53;;
11228;SDS011;5671;47.936;8.716;2023-05-20T07:38:22;9.60;;;6.47;;
11228;SDS011;5671;47.936;8.716;2023-05-20T07:40:49;6.97;;;6.23;;
11228;SDS011;5671;47.936;8.716;2023-05-20T07:43:17;8.53;;;5.93;;
11228;SDS011;5671;47.936;8.716;2023-05-20T07:45:44;8.53;;;5.87;;
11228;SDS011;5671;47.936;8.716;2023-05-20T07:48:11;6.60;;;6.00;;
11228;SDS011;5671;47.936;8.716;2023-05-20T07:50:38;7.13;;;6.10;;
11228;SDS011;5671;47.936;8.716;2023-05-20T07:53:05;6.83;;;6.07;;
11228;SDS011;5671;47.936;8.716;2023-05-20T07:55:32;6.53;;;5.77;;
11228;SDS011;5671;47.936;8.716;2023-05-20T07:58:00;7.80;;;6.20;;
11228;SDS011;5671;47.936;8.716;2023-05-20T08:00:29;6.73;;;5.87;;
11228;SDS011;5671;47.936;8.716;2023-05-20T08:02:56;6.13;;;5.63;;
11228;SDS011;5671;47.936;8.716;2023-05-20T08:05:23;7.13;;;5.80;;
11228;SDS011;5671;47.936;8.716;2023-05-20T08:07:52;7.13;;;6.07;;
11228;SDS011;5671;47.936;8.716;2023-05-20T08:10:19;6.30;;;5.67;;
11228;SDS011;5671;47.936;8.716;2023-05-20T08:12:46;7.23;;;5.70;;
11228;SDS011;5671;47.936;8.716;2023-05-20T08:15:13;6.10;;;5.50;;
11228;SDS011;5671;47.936;8.716;2023-05-20T08:17:43;5.30;;;4.80;;
11228;SDS011;5671;47.936;8.716;2023-05-20T08:20:11;5.70;;;5.20;;
11228;SDS011;5671;47.936;8.716;2023-05-20T08:22:38;5.70;;;5.20;;
11228;SDS011;5671;47.936;8.716;2023-05-20T08:25:06;6.63;;;5.50;;
11228;SDS011;5671;47.936;8.716;2023-05-20T08:27:34;6.60;;;5.03;;
11228;SDS011;5671;47.936;8.716;2023-05-20T08:30:02;6.67;;;5.13;;
11228;SDS011;5671;47.936;8.716;2023-05-20T08:32:29;6.53;;;5.77;;
11228;SDS011;5671;47.936;8.716;2023-05-20T08:34:58;7.20;;;5.50;;
11228;SDS011;5671;47.936;8.716;2023-05-20T08:37:26;5.87;;;5.27;;
11228;SDS011;5671;47.936;8.716;2023-05-20T08:39:53;5.63;;;5.13;;
11228;SDS011;5671;47.936;8.716;2023-05-20T08:42:26;8.47;;;5.57;;
11228;SDS011;5671;47.936;8.716;2023-05-20T08:44:53;5.30;;;4.80;;
11228;SDS011;5671;47.936;8.716;2023-05-20T08:47:22;6.13;;;5.63;;
11228;SDS011;5671;47.936;8.716;2023-05-20T08:49:49;6.13;;;5.20;;
11228;SDS011;5671;47.936;8.716;2023-05-20T08:52:20;6.27;;;5.67;;
11228;SDS011;5671;47.936;8.716;2023-05-20T08:54:47;6.30;;;5.70;;
11228;SDS011;5671;47.936;8.716;2023-05-20T08:57:15;7.00;;;5.20;;
11228;SDS011;5671;47.936;8.716;2023-05-20T08:59:47;6.20;;;5.60;;
11228;SDS011;5671;47.936;8.716;2023-05-20T09:02:43;5.47;;;4.97;;
11228;SDS011;5671;47.936;8.716;2023-05-20T09:05:10;7.33;;;5.63;;
11228;SDS011;5671;47.936;8.716;2023-05-20T09:07:48;7.37;;;6.03;;
11228;SDS011;5671;47.936;8.716;2023-05-20T09:10:15;6.37;;;5.77;;
11228;SDS011;5671;47.936;8.716;2023-05-20T09:12:43;9.67;;;5.40;;
11228;SDS011;5671;47.936;8.716;2023-05-20T09:15:10;6.10;;;5.50;;
11228;SDS011;5671;47.936;8.716;2023-05-20T09:17:48;6.93;;;5.00;;
11228;SDS011;5671;47.936;8.716;2023-05-20T09:20:41;9.17;;;5.53;;
11228;SDS011;5671;47.936;8.716;2023-05-20T09:23:12;6.30;;;5.70;;
11228;SDS011;5671;47.936;8.716;2023-05-20T09:26:25;6.00;;;5.43;;
11228;SDS011;5671;47.936;8.716;2023-05-20T09:28:54;6.70;;;5.97;;
11228;SDS011;5671;47.936;8.716;2023-05-20T09:31:24;7.93;;;6.60;;
11228;SDS011;5671;47.936;8.716;2023-05-20T09:33:52;6.80;;;6.13;;
11228;SDS011;5671;47.936;8.716;2023-05-20T09:36:19;7.30;;;6.60;;
11228;SDS011;5671;47.936;8.716;2023-05-20T09:38:50;6.77;;;6.17;;
11228;SDS011;5671;47.936;8.716;2023-05-20T09:41:18;6.93;;;6.23;;
11228;SDS011;5671;47.936;8.716;2023-05-20T09:43:48;8.17;;;6.03;;
11228;SDS011;5671;47.936;8.716;2023-05-20T09:46:16;6.30;;;5.70;;
11228;SDS011;5671;47.936;8.716;2023-05-20T09:48:44;5.87;;;5.37;;
11228;SDS011;5671;47.936;8.716;2023-05-20T09:51:11;10.20;;;5.50;;
11228;SDS011;5671;47.936;8.716;2023-05-20T09:53:38;5.80;;;5.20;;
11228;SDS011;5671;47.936;8.716;2023-05-20T09:56:08;6.13;;;5.50;;
11228;SDS011;5671;47.936;8.716;2023-05-20T09:58:35;6.00;;;5.50;;
11228;SDS011;5671;47.936;8.716;2023-05-20T10:01:04;5.73;;;5.13;;
11228;SDS011;5671;47.936;8.716;2023-05-20T10:03:31;6.13;;;5.00;;
11228;SDS011;5671;47.936;8.716;2023-05-20T10:06:12;6.83;;;5.20;;
11228;SDS011;5671;47.936;8.716;2023-05-20T10:08:52;9.83;;;6.20;;
11228;SDS011;5671;47.936;8.716;2023-05-20T10:11:40;7.27;;;5.33;;
11228;SDS011;5671;47.936;8.716;2023-05-20T10:14:27;5.80;;;5.20;;
11228;SDS011;5671;47.936;8.716;2023-05-20T10:17:05;5.50;;;4.80;;
11228;SDS011;5671;47.936;8.716;2023-05-20T10:19:37;5.40;;;4.90;;
11228;SDS011;5671;47.936;8.716;2023-05-20T10:22:04;5.50;;;4.73;;
11228;SDS011;5671;47.936;8.716;2023-05-20T10:24:34;6.57;;;5.37;;
11228;SDS011;5671;47.936;8.716;2023-05-20T10:27:08;6.83;;;5.40;;
11228;SDS011;5671;47.936;8.716;2023-05-20T10:29:42;5.80;;;5.07;;
11228;SDS011;5671;47.936;8.716;2023-05-20T10:32:09;6.17;;;5.00;;
11228;SDS011;5671;47.936;8.716;2023-05-20T10:34:43;7.77;;;5.20;;
11228;SDS011;5671;47.936;8.716;2023-05-20T10:37:19;5.20;;;4.70;;
11228;SDS011;5671;47.936;8.716;2023-05-20T10:39:50;5.40;;;4.90;;
11228;SDS011;5671;47.936;8.716;2023-05-20T10:42:27;4.70;;;4.30;;
11228;SDS011;5671;47.936;8.716;2023-05-20T10:44:55;5.30;;;4.80;;
11228;SDS011;5671;47.936;8.716;2023-05-20T10:47:21;6.67;;;4.50;;
11228;SDS011;5671;47.936;8.716;2023-05-20T10:49:48;6.13;;;4.77;;
11228;SDS011;5671;47.936;8.716;2023-05-20T10:52:16;5.30;;;4.63;;
11228;SDS011;5671;47.936;8.716;2023-05-20T10:54:43;6.10;;;4.80;;
11228;SDS011;5671;47.936;8.716;2023-05-20T10:57:11;4.80;;;4.30;;
11228;SDS011;5671;47.936;8.716;2023-05-20T10:59:39;4.47;;;4.07;;
11228;SDS011;5671;47.936;8.716;2023-05-20T11:02:06;4.77;;;4.37;;
11228;SDS011;5671;47.936;8.716;2023-05-20T11:04:35;4.83;;;4.43;;
11228;SDS011;5671;47.936;8.716;2023-05-20T11:07:03;6.50;;;4.43;;
11228;SDS011;5671;47.936;8.716;2023-05-20T11:09:30;6.10;;;3.70;;
11228;SDS011;5671;47.936;8.716;2023-05-20T11:11:58;4.13;;;3.73;;
11228;SDS011;5671;47.936;8.716;2023-05-20T11:14:26;4.57;;;3.80;;
11228;SDS011;5671;47.936;8.716;2023-05-20T11:16:56;4.47;;;4.07;;
11228;SDS011;5671;47.936;8.716;2023-05-20T11:19:24;5.93;;;4.27;;
11228;SDS011;5671;47.936;8.716;2023-05-20T11:21:51;5.20;;;3.73;;
11228;SDS011;5671;47.936;8.716;2023-05-20T11:24:22;9.53;;;4.10;;
11228;SDS011;5671;47.936;8.716;2023-05-20T11:26:51;5.77;;;3.70;;
11228;SDS011;5671;47.936;8.716;2023-05-20T11:29:18;4.97;;;4.50;;
11228;SDS011;5671;47.936;8.716;2023-05-20T11:31:48;5.17;;;4.67;;
11228;SDS011;5671;47.936;8.716;2023-05-20T11:34:19;4.23;;;3.83;;
11228;SDS011;5671;47.936;8.716;2023-05-20T11:36:46;5.47;;;4.07;;
11228;SDS011;5671;47.936;8.716;2023-05-20T11:39:15;4.30;;;3.90;;
11228;SDS011;5671;47.936;8.716;2023-05-20T11:41:41;4.17;;;3.87;;
11228;SDS011;5671;47.936;8.716;2023-05-20T11:44:10;11.97;;;4.23;;
11228;SDS011;5671;47.936;8.716;2023-05-20T11:46:40;3.93;;;3.60;;
11228;SDS011;5671;47.936;8.716;2023-05-20T11:49:08;5.70;;;3.70;;
11228;SDS011;5671;47.936;8.716;2023-05-20T11:51:37;5.53;;;3.83;;
11228;SDS011;5671;47.936;8.716;2023-05-20T11:54:05;4.03;;;3.63;;
11228;SDS011;5671;47.936;8.716;2023-05-20T11:56:32;8.63;;;3.70;;
11228;SDS011;5671;47.936;8.716;2023-05-20T11:59:00;4.47;;;4.00;;
11228;SDS011;5671;47.936;8.716;2023-05-20T12:01:29;4.47;;;3.43;;
11228;SDS011;5671;47.936;8.716;2023-05-20T12:03:57;3.67;;;3.37;;
11228;SDS011;5671;47.936;8.716;2023-05-20T12:06:24;3.63;;;3.10;;
11228;SDS011;5671;47.936;8.716;2023-05-20T12:08:52;5.47;;;3.70;;
11228;SDS011;5671;47.936;8.716;2023-05-20T12:11:19;3.73;;;3.43;;
11228;SDS011;5671;47.936;8.716;2023-05-20T12:13:46;4.87;;;3.97;;
11228;SDS011;5671;47.936;8.716;2023-05-20T12:16:13;4.10;;;3.70;;
11228;SDS011;5671;47.936;8.716;2023-05-20T12:18:40;3.33;;;3.03;;
11228;SDS011;5671;47.936;8.716;2023-05-20T12:21:07;7.43;;;3.97;;
11228;SDS011;5671;47.936;8.716;2023-05-20T12:23:34;4.73;;;4.33;;
11228;SDS011;5671;47.936;8.716;2023-05-20T12:26:02;6.03;;;5.53;;
11228;SDS011;5671;47.936;8.716;2023-05-20T12:28:29;6.47;;;5.47;;
11228;SDS011;5671;47.936;8.716;2023-05-20T12:30:57;8.33;;;5.87;;
11228;SDS011;5671;47.936;8.716;2023-05-20T12:33:24;7.00;;;6.03;;
11228;SDS011;5671;47.936;8.716;2023-05-20T12:35:51;6.17;;;5.57;;
11228;SDS011;5671;47.936;8.716;2023-05-20T12:38:18;5.57;;;4.97;;
11228;SDS011;5671;47.936;8.716;2023-05-20T12:40:45;4.80;;;4.07;;
11228;SDS011;5671;47.936;8.716;2023-05-20T12:43:14;5.70;;;4.60;;
11228;SDS011;5671;47.936;8.716;2023-05-20T12:45:41;4.20;;;3.80;;
11228;SDS011;5671;47.936;8.716;2023-05-20T12:48:07;5.97;;;3.27;;
11228;SDS011;5671;47.936;8.716;2023-05-20T12:50:35;4.03;;;3.70;;
11228;SDS011;5671;47.936;8.716;2023-05-20T12:53:01;4.57;;;3.43;;
11228;SDS011;5671;47.936;8.716;2023-05-20T12:55:28;4.17;;;3.73;;
11228;SDS011;5671;47.936;8.716;2023-05-20T12:57:55;3.67;;;3.23;;
11228;SDS011;5671;47.936;8.716;2023-05-20T13:00:23;3.53;;;3.23;;
11228;SDS011;5671;47.936;8.716;2023-05-20T13:02:50;3.20;;;3.00;;
11228;SDS011;5671;47.936;8.716;2023-05-20T13:05:18;4.60;;;3.50;;
11228;SDS011;5671;47.936;8.716;2023-05-20T13:07:45;3.70;;;3.37;;
11228;SDS011;5671;47.936;8.716;2023-05-20T13:10:13;4.47;;;3.10;;
11228;SDS011;5671;47.936;8.716;2023-05-20T13:12:41;6.97;;;3.30;;
11228;SDS011;5671;47.936;8.716;2023-05-20T13:15:10;3.40;;;3.10;;
11228;SDS011;5671;47.936;8.716;2023-05-20T13:17:38;4.17;;;3.40;;
11228;SDS011;5671;47.936;8.716;2023-05-20T13:20:07;4.10;;;3.80;;
11228;SDS011;5671;47.936;8.716;2023-05-20T13:22:35;4.10;;;3.40;;
11228;SDS011;5671;47.936;8.716;2023-05-20T13:25:02;3.83;;;3.20;;
11228;SDS011;5671;47.936;8.716;2023-05-20T13:27:29;3.87;;;3.03;;
11228;SDS011;5671;47.936;8.716;2023-05-20T13:29:56;3.87;;;3.57;;
11228;SDS011;5671;47.936;8.716;2023-05-20T13:32:23;3.93;;;3.50;;
11228;SDS011;5671;47.936;8.716;2023-05-20T13:34:51;6.07;;;4.03;;
11228;SDS011;5671;47.936;8.716;2023-05-20T13:37:18;5.37;;;3.43;;
11228;SDS011;5671;47.936;8.716;2023-05-20T13:39:45;3.80;;;3.50;;
11228;SDS011;5671;47.936;8.716;2023-05-20T13:42:13;3.50;;;3.20;;
11228;SDS011;5671;47.936;8.716;2023-05-20T13:44:40;4.47;;;3.50;;
11228;SDS011;5671;47.936;8.716;2023-05-20T13:47:07;3.60;;;3.30;;
11228;SDS011;5671;47.936;8.716;2023-05-20T13:49:34;4.83;;;3.50;;
11228;SDS011;5671;47.936;8.716;2023-05-20T13:52:02;3.70;;;3.40;;
11228;SDS011;5671;47.936;8.716;2023-05-20T13:54:29;4.00;;;3.70;;
11228;SDS011;5671;47.936;8.716;2023-05-20T13:56:56;4.53;;;3.47;;
11228;SDS011;5671;47.936;8.716;2023-05-20T13:59:23;3.50;;;3.20;;
11228;SDS011;5671;47.936;8.716;2023-05-20T14:01:52;3.50;;;3.13;;
11228;SDS011;5671;47.936;8.716;2023-05-20T14:04:18;3.80;;;2.93;;
11228;SDS011;5671;47.936;8.716;2023-05-20T14:06:46;3.47;;;3.23;;
11228;SDS011;5671;47.936;8.716;2023-05-20T14:09:14;3.20;;;2.90;;
11228;SDS011;5671;47.936;8.716;2023-05-20T14:11:41;4.10;;;3.53;;
11228;SDS011;5671;47.936;8.716;2023-05-20T14:14:08;3.70;;;3.40;;
11228;SDS011;5671;47.936;8.716;2023-05-20T14:16:35;4.57;;;3.30;;
11228;SDS011;5671;47.936;8.716;2023-05-20T14:19:03;3.83;;;2.80;;
11228;SDS011;5671;47.936;8.716;2023-05-20T14:21:30;3.67;;;3.37;;
11228;SDS011;5671;47.936;8.716;2023-05-20T14:23:57;3.50;;;3.20;;
11228;SDS011;5671;47.936;8.716;2023-05-20T14:26:27;4.30;;;3.10;;
11228;SDS011;5671;47.936;8.716;2023-05-20T14:28:54;4.33;;;2.80;;
11228;SDS011;5671;47.936;8.716;2023-05-20T14:31:21;4.17;;;3.57;;
11228;SDS011;5671;47.936;8.716;2023-05-20T14:33:48;4.33;;;3.40;;
11228;SDS011;5671;47.936;8.716;2023-05-20T14:36:14;10.93;;;3.30;;
11228;SDS011;5671;47.936;8.716;2023-05-20T14:38:42;5.00;;;3.27;;
11228;SDS011;5671;47.936;8.716;2023-05-20T14:41:08;3.10;;;2.80;;
11228;SDS011;5671;47.936;8.716;2023-05-20T14:43:37;3.50;;;3.20;;
11228;SDS011;5671;47.936;8.716;2023-05-20T14:46:04;5.27;;;3.07;;
11228;SDS011;5671;47.936;8.716;2023-05-20T14:48:31;3.33;;;3.03;;
11228;SDS011;5671;47.936;8.716;2023-05-20T14:50:58;6.93;;;3.33;;
11228;SDS011;5671;47.936;8.716;2023-05-20T14:53:25;3.17;;;2.97;;
11228;SDS011;5671;47.936;8.716;2023-05-20T14:55:51;4.30;;;3.10;;
11228;SDS011;5671;47.936;8.716;2023-05-20T14:58:18;7.27;;;3.40;;
11228;SDS011;5671;47.936;8.716;2023-05-20T15:00:46;5.70;;;2.90;;
11228;SDS011;5671;47.936;8.716;2023-05-20T15:03:13;4.00;;;2.70;;
11228;SDS011;5671;47.936;8.716;2023-05-20T15:05:40;3.23;;;2.90;;